Eastsound, WA

11:26 PM PST on November 22, 2014 (GMT -0800)
Friday Harbor | Change Station
CLOSE
Current Station
Airport
Location: Friday Harbor,
Elevation: 108 ft
Nearby Weather Stations

Elev 108 ft 48.52 °N, 123.02 °W | Updated 33 minutes ago

Partly Cloudy
Partly Cloudy
47 °F
Feels Like 47 °F
N
6
Wind Variable Wind from South

Today
High -- | Low -- °F
--% Chance of Precip.
Yesterday
High -- | Low -- °F
Precip. -- in
7:30 AM 4:24 PM
New Moon, 1% visible
Pressure 30.09 in
Visibility 10.0 miles
Clouds Scattered Clouds 3600 ft
Scattered Clouds 4600 ft
Mostly Cloudy 6000 ft
Dew Point 42 °F
Humidity 83%
Rainfall 0.01 in
Snow Depth Not available.
UV 0 out of 12
Pollen .10 out of 12
Air Quality Not available.
Flu Activity Not available.
METAR KFHR 230653Z AUTO 17005KT 10SM SCT036 SCT046 BKN060 08/06 A3009 RMK AO2 SLP189 T00830056

More Conditions Fewer Conditions

Pressure 30.09 in
Visibility 10.0 miles
Clouds Scattered Clouds 3600 ft
Scattered Clouds 4600 ft
Mostly Cloudy 6000 ft
Dew Point 42 °F
Humidity 83%
Rainfall 0.01 in
Snow Depth Not available.
UV 0 out of 12
Pollen .10 out of 12
Air Quality Not available.
Flu Activity Not available.
METAR KFHR 230653Z AUTO 17005KT 10SM SCT036 SCT046 BKN060 08/06 A3009 RMK AO2 SLP189 T00830056

More Conditions Fewer Conditions

10-Day Weather Forecast

Almanac

Astronomy

Nov. 22, 2014 Rise Set
Actual Time
Civil Twilight
Nautical Twilight
Astronomical Twilight
Moon
Length of Visible Light
Length of Day
Tomorrow will be .
, % of the Moon is Illuminated

Today's Extremes

State Highs State Lows

Community

WunderPhotos

Upload Photos

1,773,024 photos uploaded!

WunderBlogs® & News

Nearby

Air Quality

  Air Quality AQ Index Pollutant
Not available.

Snow Depth

Station Depth Elevation

Earthquake Activity

City Distance Mag. Time & Date
Minimum magnitude displayed is 2.5.

Coastal Water Temperatures

Place Temperature

Nearby Weather Stations